Old Orchard Beach, Maine
Current Conditions -  °F | °C
As of 4:51 AM on Sunday 26 Oct 2014 (Local Time) from KPWM Reporting Station
Few Clouds Few Clouds  
Wind Chill: 42°   Ceiling: Unl
Heat Index: 44°   Visibility: 9mi
Dew Point: 42°   Wind: 5mph
Humidity: 93%   Direction: 290°WNW
Pressure: 29.39"   Gusts: NA
Location:  43.52°N, 70.38°W
Report Text: KPWM 260851Z 29004KT 9SM FEW150 07/06 A2939 RMK AO2 SLP951 T00670056 58008
Loading
Personal Weather Stations






























Interactive Weather Map New forecast layout! Learn more

10-Day Weather Forecast

Advertisements
Track Severe Weather on mobile